Time;durP1;ratioP1;P1;durP2;ratioP2;P2;SDS_P1;SDS_P2;PMS_P1;PMS_P2;Temp;Humidity;BMP_temperature;BMP_pressure;BME280_temperature;BME280_humidity;BME280_pressure;Samples;Min_cycle;Max_cycle;Signal;HPM_P1;HPM_P2
2022/03/28 00:01:13;;;;;;;0.40;0.40;;;9.00;86.70;;;;;;5013829;28;20388;-73
2022/03/28 00:03:38;;;;;;;0.50;0.40;;;9.00;85.40;;;;;;5012463;28;20939;-74
2022/03/28 00:06:07;;;;;;;1.30;0.80;;;8.90;86.00;;;;;;5012355;28;20794;-73
2022/03/28 00:08:34;;;;;;;0.40;0.20;;;8.80;86.10;;;;;;5013232;28;20986;-73
2022/03/28 00:11:00;;;;;;;0.40;0.20;;;8.80;87.50;;;;;;5012865;28;20978;-72
2022/03/28 00:13:25;;;;;;;0.40;0.30;;;8.60;86.30;;;;;;5013431;28;20458;-73
2022/03/28 00:15:51;;;;;;;0.40;0.20;;;8.70;86.60;;;;;;5012489;28;20420;-73
2022/03/28 00:18:17;;;;;;;0.40;0.20;;;8.70;86.90;;;;;;5013764;28;20385;-73
2022/03/28 00:20:46;;;;;;;0.40;0.20;;;8.70;87.10;;;;;;5013248;28;20376;-73
2022/03/28 00:23:12;;;;;;;0.40;0.20;;;8.80;87.20;;;;;;5013293;28;20389;-73
2022/03/28 00:25:40;;;;;;;0.40;0.40;;;8.70;87.40;;;;;;5013377;28;20400;-73
2022/03/28 00:28:06;;;;;;;1.20;1.20;;;8.60;88.20;;;;;;5012561;28;20412;-73
2022/03/28 00:30:32;;;;;;;0.90;0.90;;;8.50;88.10;;;;;;5012628;28;20389;-72
2022/03/28 00:32:59;;;;;;;0.60;0.60;;;8.60;87.60;;;;;;5012333;28;20389;-73
2022/03/28 00:35:25;;;;;;;0.40;0.30;;;8.40;87.50;;;;;;5013170;28;20416;-73
2022/03/28 00:37:52;;;;;;;0.40;0.30;;;8.50;87.80;;;;;;5013154;28;20438;-73
2022/03/28 00:40:17;;;;;;;0.40;0.30;;;8.60;87.00;;;;;;5012937;28;20389;-73
2022/03/28 00:42:45;;;;;;;0.50;0.50;;;8.50;86.30;;;;;;5012964;28;20737;-73
2022/03/28 00:45:10;;;;;;;0.40;0.30;;;8.50;87.60;;;;;;5011009;28;20392;-73
2022/03/28 00:47:36;;;;;;;0.50;0.50;;;8.50;87.10;;;;;;5012765;28;20385;-73
2022/03/28 00:50:03;;;;;;;0.40;0.40;;;8.30;87.40;;;;;;5011526;28;20439;-74
2022/03/28 00:52:29;;;;;;;0.40;0.20;;;8.40;87.50;;;;;;5012774;28;20425;-73
2022/03/28 00:54:57;;;;;;;0.40;0.20;;;8.30;88.00;;;;;;5011124;28;20491;-73
2022/03/28 00:57:23;;;;;;;0.40;0.20;;;8.20;87.90;;;;;;5011727;28;20387;-73
2022/03/28 00:59:49;;;;;;;0.40;0.30;;;8.20;88.30;;;;;;5011591;28;20389;-73
2022/03/28 01:02:15;;;;;;;0.40;0.30;;;8.20;88.60;;;;;;5011726;28;20384;-73
2022/03/28 01:04:41;;;;;;;0.40;0.20;;;8.20;88.00;;;;;;5012268;28;20408;-73
2022/03/28 01:07:09;;;;;;;0.40;0.20;;;8.30;87.80;;;;;;5012676;28;20442;-73
2022/03/28 01:09:35;;;;;;;0.40;0.28;;;8.30;87.30;;;;;;5011487;28;20972;-73
2022/03/28 01:12:03;;;;;;;0.60;0.60;;;8.30;87.10;;;;;;5011548;28;20920;-73
2022/03/28 01:14:29;;;;;;;1.00;1.00;;;8.40;87.30;;;;;;5011572;28;20385;-73
2022/03/28 01:19:38;;;;;;;0.40;0.20;;;8.10;87.70;;;;;;5011673;28;21215;-73
2022/03/28 01:22:04;;;;;;;0.40;0.20;;;8.10;88.80;;;;;;5012283;28;20393;-72
2022/03/28 01:24:31;;;;;;;0.40;0.40;;;8.10;87.70;;;;;;5011689;28;20383;-74
2022/03/28 01:26:58;;;;;;;1.10;0.80;;;8.00;88.10;;;;;;5011187;28;20396;-73
2022/03/28 01:29:25;;;;;;;0.40;0.20;;;8.00;88.30;;;;;;5012828;28;20389;-73
2022/03/28 01:31:51;;;;;;;0.40;0.30;;;8.00;88.10;;;;;;5011636;28;20397;-73
2022/03/28 01:34:18;;;;;;;2.90;1.10;;;8.10;88.20;;;;;;5010583;28;20381;-73
2022/03/28 01:36:47;;;;;;;0.40;0.30;;;8.00;88.30;;;;;;5009379;28;20425;-73
2022/03/28 01:39:17;;;;;;;0.60;0.50;;;8.00;89.20;;;;;;5011918;28;20396;-73
2022/03/28 01:41:44;;;;;;;0.40;0.20;;;7.90;89.30;;;;;;5011364;28;20393;-73
2022/03/28 01:44:10;;;;;;;0.40;0.30;;;7.90;89.50;;;;;;5011923;28;20385;-73
2022/03/28 01:46:47;;;;;;;0.80;0.80;;;7.80;89.50;;;;;;5011784;28;20391;-74
2022/03/28 01:49:14;;;;;;;0.40;0.30;;;7.80;90.00;;;;;;5010442;28;20748;-73
2022/03/28 01:51:40;;;;;;;0.40;0.20;;;7.80;90.20;;;;;;5010193;28;20389;-74
2022/03/28 01:54:06;;;;;;;1.20;0.60;;;7.60;90.20;;;;;;5010050;28;20385;-73
2022/03/28 01:56:36;;;;;;;0.60;0.50;;;7.70;90.50;;;;;;5011709;28;20543;-73
2022/03/28 01:59:03;;;;;;;0.40;0.20;;;7.60;90.40;;;;;;5009507;28;20396;-73
2022/03/28 02:01:29;;;;;;;0.40;0.20;;;7.60;90.40;;;;;;5011824;28;20381;-73
2022/03/28 02:03:54;;;;;;;0.40;0.30;;;7.70;90.80;;;;;;5011157;28;20475;-73
2022/03/28 02:06:20;;;;;;;0.40;0.30;;;7.70;91.00;;;;;;5011119;28;20397;-73
2022/03/28 02:08:46;;;;;;;0.40;0.38;;;7.60;91.80;;;;;;5011472;28;20765;-73
2022/03/28 02:11:12;;;;;;;1.30;0.80;;;7.70;90.40;;;;;;4992121;28;20403;-73
2022/03/28 02:13:38;;;;;;;0.40;0.20;;;7.70;90.60;;;;;;4991982;28;20393;-73
2022/03/28 02:16:04;;;;;;;0.80;0.80;;;7.80;90.40;;;;;;4990532;28;20767;-74
2022/03/28 02:18:30;;;;;;;0.80;0.80;;;7.70;90.60;;;;;;4991409;28;20389;-73
2022/03/28 02:20:56;;;;;;;0.80;0.80;;;7.80;90.70;;;;;;4991615;28;20555;-75
2022/03/28 02:23:23;;;;;;;0.40;0.30;;;7.70;90.10;;;;;;4990433;28;20510;-72
2022/03/28 02:25:48;;;;;;;0.40;0.22;;;7.70;90.10;;;;;;4991614;28;20390;-72
2022/03/28 02:28:14;;;;;;;0.40;0.30;;;7.60;90.20;;;;;;4991040;28;20736;-72
2022/03/28 02:30:40;;;;;;;0.40;0.30;;;7.80;90.60;;;;;;4991645;28;20386;-72
2022/03/28 02:33:07;;;;;;;0.55;0.55;;;7.70;90.10;;;;;;4991041;28;20410;-73
2022/03/28 02:35:33;;;;;;;0.40;0.30;;;7.70;90.10;;;;;;4990679;28;20501;-72
2022/03/28 02:38:01;;;;;;;0.40;0.22;;;7.60;90.20;;;;;;4991583;28;20453;-72
2022/03/28 02:40:31;;;;;;;0.40;0.30;;;7.70;89.50;;;;;;4990377;28;20433;-72
2022/03/28 02:42:57;;;;;;;0.40;0.30;;;7.80;90.60;;;;;;4991226;28;20377;-72
2022/03/28 02:45:28;;;;;;;1.00;1.00;;;7.80;90.40;;;;;;4990522;28;20399;-73
2022/03/28 02:47:54;;;;;;;0.40;0.30;;;7.80;90.00;;;;;;4991381;28;20422;-73
2022/03/28 02:50:20;;;;;;;0.50;0.50;;;7.80;88.60;;;;;;4990165;28;20465;-74
2022/03/28 02:52:45;;;;;;;0.40;0.40;;;7.80;88.10;;;;;;4991472;28;20393;-73
2022/03/28 02:55:11;;;;;;;0.40;0.20;;;7.90;89.80;;;;;;4989805;28;20418;-73
2022/03/28 02:57:37;;;;;;;0.40;0.20;;;7.80;87.80;;;;;;4990189;28;20387;-73
2022/03/28 03:00:10;;;;;;;0.60;0.60;;;7.80;87.90;;;;;;4991028;28;20382;-73
2022/03/28 03:02:38;;;;;;;3.90;1.10;;;7.80;87.80;;;;;;4990370;28;20383;-73
2022/03/28 03:05:05;;;;;;;0.40;0.20;;;7.70;88.20;;;;;;4991199;28;20469;-73
2022/03/28 03:07:31;;;;;;;0.40;0.20;;;7.70;88.70;;;;;;4990427;28;20924;-73
2022/03/28 03:09:56;;;;;;;0.40;0.20;;;7.70;89.10;;;;;;4999264;28;20465;-73
2022/03/28 03:12:22;;;;;;;0.60;0.55;;;7.80;89.10;;;;;;5010343;28;20467;-73
2022/03/28 03:14:48;;;;;;;0.40;0.30;;;7.80;89.40;;;;;;5009500;28;20451;-73
2022/03/28 03:17:14;;;;;;;0.40;0.30;;;7.70;90.40;;;;;;5010660;28;20758;-73
2022/03/28 03:19:40;;;;;;;3.60;1.40;;;7.50;89.30;;;;;;5009427;28;20413;-73
2022/03/28 03:22:07;;;;;;;0.40;0.30;;;7.50;90.20;;;;;;5010563;28;20421;-73
2022/03/28 03:24:34;;;;;;;1.27;0.68;;;7.40;90.80;;;;;;5009888;28;20754;-73
2022/03/28 03:27:00;;;;;;;0.60;0.60;;;7.40;91.50;;;;;;5009507;28;20857;-73
2022/03/28 03:29:26;;;;;;;0.40;0.20;;;7.50;91.10;;;;;;5010432;28;20735;-73
2022/03/28 03:31:52;;;;;;;1.80;1.40;;;7.40;91.00;;;;;;5009459;28;20423;-73
2022/03/28 03:34:19;;;;;;;0.40;0.40;;;7.30;91.90;;;;;;5012538;28;20377;-73
2022/03/28 03:36:45;;;;;;;2.10;1.20;;;7.40;92.20;;;;;;5014195;28;20431;-75
2022/03/28 03:39:11;;;;;;;0.40;0.20;;;7.30;91.40;;;;;;5014594;28;20393;-73
2022/03/28 03:41:37;;;;;;;0.70;0.60;;;7.20;91.90;;;;;;5014837;28;20381;-73
2022/03/28 03:44:03;;;;;;;0.40;0.20;;;7.20;92.20;;;;;;5013666;28;20380;-73
2022/03/28 03:46:29;;;;;;;0.95;0.80;;;7.30;92.10;;;;;;5014713;28;20390;-73
2022/03/28 03:48:55;;;;;;;0.40;0.30;;;7.40;91.60;;;;;;5013735;28;20389;-74
2022/03/28 03:51:21;;;;;;;0.40;0.30;;;7.40;90.60;;;;;;5014586;28;20380;-73
2022/03/28 03:53:46;;;;;;;1.50;1.40;;;7.50;90.40;;;;;;5014661;28;20447;-73
2022/03/28 03:56:12;;;;;;;0.40;0.30;;;7.40;90.50;;;;;;5013850;28;20475;-73
2022/03/28 03:58:38;;;;;;;1.00;0.50;;;7.40;91.00;;;;;;5014520;28;20445;-73
2022/03/28 04:01:04;;;;;;;0.50;0.50;;;7.40;90.40;;;;;;5013235;28;20499;-73
2022/03/28 04:03:29;;;;;;;0.40;0.20;;;7.40;90.40;;;;;;5013939;28;20396;-73
2022/03/28 04:05:55;;;;;;;1.70;0.70;;;7.40;90.50;;;;;;5013591;28;20483;-73
2022/03/28 04:08:21;;;;;;;0.90;0.90;;;7.40;90.40;;;;;;5011722;28;20431;-73
2022/03/28 04:10:46;;;;;;;0.40;0.30;;;7.40;90.30;;;;;;4998500;28;20886;-73
2022/03/28 04:13:13;;;;;;;0.40;0.30;;;7.50;90.10;;;;;;4993005;28;20382;-74
2022/03/28 04:15:39;;;;;;;0.70;0.70;;;7.60;90.00;;;;;;4992538;28;20417;-73
2022/03/28 04:18:05;;;;;;;0.40;0.40;;;7.60;88.60;;;;;;4994226;28;20378;-73
2022/03/28 04:20:32;;;;;;;0.60;0.60;;;7.50;89.10;;;;;;4992335;28;20387;-74
2022/03/28 04:22:58;;;;;;;0.70;0.70;;;7.50;89.90;;;;;;4994415;28;20943;-73
2022/03/28 04:25:24;;;;;;;0.70;0.70;;;7.40;89.90;;;;;;4991911;28;20414;-74
2022/03/28 04:27:50;;;;;;;0.40;0.40;;;7.30;90.20;;;;;;4993878;28;20453;-73
2022/03/28 04:30:16;;;;;;;0.52;0.52;;;7.20;90.70;;;;;;4993922;28;20386;-75
2022/03/28 04:32:42;;;;;;;0.40;0.30;;;7.00;91.30;;;;;;4994176;28;20474;-74
2022/03/28 04:35:10;;;;;;;0.83;0.83;;;7.10;91.70;;;;;;4994034;28;20477;-73
2022/03/28 04:37:37;;;;;;;1.10;0.90;;;6.80;92.60;;;;;;4992761;28;20402;-74
2022/03/28 04:40:05;;;;;;;0.90;0.50;;;6.80;93.10;;;;;;4993897;28;20386;-73
2022/03/28 04:42:31;;;;;;;0.40;0.25;;;6.70;93.50;;;;;;4993289;28;20378;-74
2022/03/28 04:44:56;;;;;;;1.10;1.00;;;6.60;94.90;;;;;;4994125;28;20415;-74
2022/03/28 04:47:22;;;;;;;0.40;0.30;;;6.50;94.70;;;;;;4994260;28;20437;-73
2022/03/28 04:49:48;;;;;;;0.40;0.30;;;6.50;94.70;;;;;;4993211;28;20833;-74
2022/03/28 04:52:14;;;;;;;0.40;0.30;;;6.40;95.30;;;;;;4993821;28;20389;-73
2022/03/28 04:54:40;;;;;;;0.80;0.80;;;6.40;95.30;;;;;;4993070;28;20395;-74
2022/03/28 04:57:05;;;;;;;0.40;0.20;;;6.30;95.60;;;;;;4993816;28;20450;-73
2022/03/28 04:59:32;;;;;;;0.50;0.50;;;6.30;96.00;;;;;;4994004;28;20473;-73
2022/03/28 05:01:58;;;;;;;0.40;0.30;;;6.40;96.60;;;;;;4992875;28;20889;-72
2022/03/28 05:04:25;;;;;;;0.40;0.20;;;6.30;96.00;;;;;;4993748;28;20716;-72
2022/03/28 05:06:51;;;;;;;0.90;0.90;;;6.20;96.30;;;;;;4992655;28;20752;-72
2022/03/28 05:09:17;;;;;;;0.40;0.30;;;6.20;96.30;;;;;;4996382;28;20389;-72
2022/03/28 05:11:43;;;;;;;0.70;0.70;;;6.30;95.90;;;;;;5012332;28;20443;-75
2022/03/28 05:14:09;;;;;;;0.60;0.60;;;6.30;95.80;;;;;;5013052;28;20849;-73
2022/03/28 05:16:35;;;;;;;0.40;0.20;;;6.30;95.50;;;;;;5012935;28;20467;-73
2022/03/28 05:19:01;;;;;;;0.40;0.20;;;6.30;95.70;;;;;;5012128;28;20805;-73
2022/03/28 05:21:26;;;;;;;0.40;0.20;;;6.40;95.30;;;;;;5011540;28;20393;-73
2022/03/28 05:23:52;;;;;;;0.40;0.20;;;6.40;95.30;;;;;;5012154;28;20460;-73
2022/03/28 05:26:18;;;;;;;1.00;0.50;;;6.30;95.20;;;;;;5012282;28;20735;-73
2022/03/28 05:28:44;;;;;;;0.70;0.70;;;6.30;95.30;;;;;;5012286;28;20408;-73
2022/03/28 05:31:09;;;;;;;0.40;0.30;;;6.20;95.80;;;;;;5011662;28;20503;-74
2022/03/28 05:33:35;;;;;;;0.70;0.70;;;6.30;95.80;;;;;;5012956;28;20380;-73
2022/03/28 05:36:01;;;;;;;0.90;0.70;;;6.30;95.60;;;;;;5011544;28;20412;-73
2022/03/28 05:38:26;;;;;;;0.40;0.20;;;6.40;95.40;;;;;;5012989;28;20393;-73
2022/03/28 05:40:52;;;;;;;3.45;1.05;;;6.50;95.10;;;;;;5011355;28;20412;-73
2022/03/28 05:43:18;;;;;;;2.50;1.30;;;6.40;95.30;;;;;;5011915;28;20423;-73
2022/03/28 05:45:44;;;;;;;1.90;0.90;;;6.40;95.40;;;;;;5012431;28;20475;-73
2022/03/28 05:48:10;;;;;;;0.40;0.30;;;6.50;95.10;;;;;;5011555;28;20472;-74
2022/03/28 05:50:35;;;;;;;0.80;0.60;;;6.50;95.10;;;;;;5012650;28;20868;-73
2022/03/28 05:53:01;;;;;;;0.40;0.20;;;6.60;94.60;;;;;;5011776;28;20384;-73
2022/03/28 05:55:27;;;;;;;0.50;0.50;;;6.60;94.60;;;;;;5011544;28;20416;-73
2022/03/28 05:57:53;;;;;;;0.60;0.50;;;6.60;94.60;;;;;;5011431;28;20714;-74
2022/03/28 06:00:20;;;;;;;0.40;0.30;;;6.60;94.60;;;;;;5009812;28;20389;-73
2022/03/28 06:02:46;;;;;;;1.30;1.30;;;6.70;94.80;;;;;;5012072;28;20384;-74
2022/03/28 06:05:12;;;;;;;1.10;1.10;;;6.60;95.10;;;;;;5009193;28;20885;-75
2022/03/28 06:07:39;;;;;;;0.40;0.20;;;6.80;95.30;;;;;;5011427;28;20483;-74
2022/03/28 06:10:05;;;;;;;0.60;0.60;;;6.90;94.60;;;;;;5011688;28;20405;-74
2022/03/28 06:12:31;;;;;;;0.40;0.20;;;6.90;94.20;;;;;;5002320;28;20409;-74
2022/03/28 06:14:57;;;;;;;0.40;0.20;;;7.00;93.90;;;;;;5008831;28;20396;-73
2022/03/28 06:17:25;;;;;;;0.40;0.30;;;7.00;93.80;;;;;;5008001;28;20400;-73
2022/03/28 06:19:51;;;;;;;1.23;1.17;;;7.10;93.70;;;;;;5014586;28;20638;-74
2022/03/28 06:22:17;;;;;;;0.90;0.90;;;7.50;92.80;;;;;;5020517;28;20381;-73
2022/03/28 06:24:44;;;;;;;0.40;0.40;;;7.40;92.10;;;;;;5010471;28;20403;-74
2022/03/28 06:27:10;;;;;;;0.40;0.30;;;7.30;93.00;;;;;;5011332;28;20392;-74
2022/03/28 06:29:35;;;;;;;0.50;0.50;;;7.30;93.30;;;;;;5010826;28;20390;-74
2022/03/28 06:32:01;;;;;;;0.43;0.38;;;7.30;92.90;;;;;;5002192;28;20545;-75
2022/03/28 06:34:27;;;;;;;0.50;0.50;;;7.40;92.80;;;;;;4996631;28;20943;-74
2022/03/28 06:36:53;;;;;;;0.40;0.20;;;7.40;93.00;;;;;;5007550;28;20539;-74
2022/03/28 06:39:19;;;;;;;1.50;1.40;;;7.50;92.40;;;;;;5011330;28;20393;-74
2022/03/28 06:41:44;;;;;;;0.50;0.50;;;7.60;92.40;;;;;;5010472;28;20381;-74
2022/03/28 06:44:11;;;;;;;0.40;0.30;;;8.20;92.60;;;;;;5011630;28;20447;-74
2022/03/28 06:46:39;;;;;;;0.43;0.43;;;8.20;91.10;;;;;;5010816;28;20396;-76
2022/03/28 06:49:05;;;;;;;0.40;0.40;;;8.10;90.80;;;;;;5011066;28;20381;-74
2022/03/28 06:51:32;;;;;;;0.57;0.57;;;8.20;91.80;;;;;;5011391;28;20919;-74
2022/03/28 06:53:58;;;;;;;2.30;1.50;;;8.20;92.20;;;;;;5009878;28;20873;-73
2022/03/28 06:56:24;;;;;;;1.40;1.30;;;8.50;90.40;;;;;;5010974;28;20419;-74
2022/03/28 06:58:50;;;;;;;5.20;1.30;;;8.60;89.80;;;;;;5009844;28;20389;-74
2022/03/28 07:01:16;;;;;;;1.20;1.10;;;8.60;90.10;;;;;;5010685;28;20424;-74
2022/03/28 07:03:41;;;;;;;0.60;0.60;;;8.60;90.00;;;;;;5011575;28;20392;-74
2022/03/28 07:06:10;;;;;;;0.40;0.40;;;8.70;88.70;;;;;;5010143;28;20395;-74
2022/03/28 07:08:36;;;;;;;0.40;0.30;;;8.90;88.30;;;;;;5010337;28;20424;-74
2022/03/28 07:11:02;;;;;;;0.70;0.50;;;9.00;88.00;;;;;;5002117;28;20856;-74
2022/03/28 07:13:28;;;;;;;0.40;0.28;;;9.10;88.60;;;;;;5011056;28;20475;-74
2022/03/28 07:15:54;;;;;;;1.00;0.90;;;9.20;88.00;;;;;;5009969;28;20425;-76
2022/03/28 07:18:20;;;;;;;1.00;0.90;;;9.30;87.10;;;;;;5010538;28;20380;-74
2022/03/28 07:20:46;;;;;;;0.40;0.30;;;9.40;88.30;;;;;;5011113;28;20384;-74
2022/03/28 07:23:13;;;;;;;0.40;0.30;;;9.50;90.00;;;;;;5010195;28;20451;-74
2022/03/28 07:25:39;;;;;;;1.70;0.80;;;9.60;87.60;;;;;;5010991;28;20933;-74
2022/03/28 07:28:12;;;;;;;0.40;0.30;;;9.80;87.00;;;;;;5010216;28;20412;-76
2022/03/28 07:30:39;;;;;;;0.40;0.20;;;10.00;83.90;;;;;;5010921;28;20389;-73
2022/03/28 07:33:06;;;;;;;2.80;1.20;;;10.10;83.90;;;;;;5010563;28;20388;-75
2022/03/28 07:35:35;;;;;;;1.50;0.85;;;10.20;85.30;;;;;;5010397;28;20413;-73
2022/03/28 07:38:02;;;;;;;0.75;0.75;;;10.20;84.50;;;;;;5010901;28;20397;-74
2022/03/28 07:40:31;;;;;;;1.70;1.00;;;10.30;83.20;;;;;;5010087;28;20404;-74
2022/03/28 07:42:57;;;;;;;0.80;0.80;;;10.40;82.40;;;;;;5011196;28;20377;-74
2022/03/28 07:45:23;;;;;;;0.60;0.60;;;10.50;81.80;;;;;;5009630;28;20757;-74
2022/03/28 07:47:49;;;;;;;2.30;2.10;;;10.60;82.60;;;;;;5010667;28;20381;-73
2022/03/28 07:50:15;;;;;;;1.10;0.85;;;10.80;80.40;;;;;;5010530;28;20377;-76
2022/03/28 07:52:41;;;;;;;0.40;0.30;;;10.90;80.30;;;;;;5008857;28;20484;-73
2022/03/28 07:55:08;;;;;;;1.20;0.90;;;11.00;81.20;;;;;;5009310;28;20416;-73
2022/03/28 07:57:36;;;;;;;0.40;0.20;;;11.10;79.40;;;;;;5009847;28;20385;-73
2022/03/28 08:00:10;;;;;;;0.40;0.20;;;11.20;79.30;;;;;;5010693;28;20472;-73
2022/03/28 08:02:37;;;;;;;0.60;0.60;;;11.40;78.60;;;;;;5009909;28;20396;-74
2022/03/28 08:05:03;;;;;;;0.60;0.50;;;11.40;76.30;;;;;;5010722;28;20864;-74
2022/03/28 08:07:29;;;;;;;0.40;0.20;;;11.50;75.90;;;;;;5009677;28;20393;-74
2022/03/28 08:09:55;;;;;;;0.40;0.20;;;11.60;76.50;;;;;;5010303;28;20409;-73
2022/03/28 08:12:21;;;;;;;0.70;0.68;;;11.80;76.20;;;;;;5010188;28;20396;-73
2022/03/28 08:14:48;;;;;;;1.00;0.90;;;11.90;74.60;;;;;;5009672;28;20389;-73
2022/03/28 08:17:13;;;;;;;0.90;0.60;;;12.00;73.70;;;;;;5010206;28;20493;-73
2022/03/28 08:19:39;;;;;;;0.40;0.20;;;12.10;73.70;;;;;;5010295;28;20729;-73
2022/03/28 08:22:05;;;;;;;0.40;0.30;;;12.20;74.40;;;;;;5012743;28;20388;-73
2022/03/28 08:24:31;;;;;;;0.40;0.30;;;12.40;73.90;;;;;;5013714;28;20389;-73
2022/03/28 08:26:57;;;;;;;0.50;0.40;;;12.50;72.70;;;;;;5012825;28;20467;-73
2022/03/28 08:29:22;;;;;;;1.50;0.70;;;12.60;71.30;;;;;;5014073;28;20377;-73
2022/03/28 08:31:49;;;;;;;1.70;1.60;;;12.70;69.80;;;;;;5013328;28;20412;-73
2022/03/28 08:34:14;;;;;;;0.40;0.30;;;12.90;68.70;;;;;;5013642;28;20395;-73
2022/03/28 08:36:41;;;;;;;0.40;0.40;;;13.10;67.80;;;;;;5012375;28;20889;-73
2022/03/28 08:39:07;;;;;;;1.30;1.20;;;13.30;66.90;;;;;;5012856;28;20393;-73
2022/03/28 08:41:33;;;;;;;1.10;0.70;;;13.40;66.40;;;;;;5013615;28;20380;-73
2022/03/28 08:44:00;;;;;;;0.40;0.40;;;13.40;66.90;;;;;;5011609;28;20385;-72
2022/03/28 08:46:29;;;;;;;0.40;0.30;;;13.50;66.50;;;;;;5006036;28;20429;-71
2022/03/28 08:48:57;;;;;;;0.70;0.70;;;13.60;66.60;;;;;;5003646;28;20389;-72
2022/03/28 08:51:23;;;;;;;0.40;0.25;;;13.60;66.90;;;;;;5013507;28;20393;-71
2022/03/28 08:53:50;;;;;;;2.90;0.95;;;13.60;66.90;;;;;;5011539;28;20753;-73
2022/03/28 08:56:16;;;;;;;0.90;0.90;;;13.60;67.20;;;;;;5007241;28;20532;-73
2022/03/28 08:58:42;;;;;;;0.50;0.50;;;13.70;67.30;;;;;;5006637;28;20396;-71
2022/03/28 09:01:08;;;;;;;1.55;1.45;;;13.60;66.10;;;;;;5009199;28;20494;-71
2022/03/28 09:03:39;;;;;;;1.65;1.52;;;13.60;65.80;;;;;;5010738;28;20438;-72
2022/03/28 09:06:33;;;;;;;0.40;0.40;;;13.60;66.10;;;;;;5005434;28;20401;-72
2022/03/28 09:09:17;;;;;;;0.40;0.40;;;13.60;65.80;;;;;;5009814;28;20408;-72
2022/03/28 09:11:45;;;;;;;1.80;1.30;;;13.60;65.80;;;;;;5010516;28;20909;-73
2022/03/28 09:14:13;;;;;;;0.90;0.70;;;13.70;65.70;;;;;;5010540;28;20401;-73
2022/03/28 09:16:40;;;;;;;1.00;1.00;;;13.70;65.90;;;;;;5010353;28;20877;-72
2022/03/28 09:19:10;;;;;;;0.70;0.70;;;13.80;64.70;;;;;;4997395;28;20387;-69
2022/03/28 09:21:37;;;;;;;0.70;0.60;;;13.80;64.60;;;;;;4993071;28;20776;-68
2022/03/28 09:24:10;;;;;;;1.30;1.30;;;14.00;65.10;;;;;;5000002;28;20392;-68
2022/03/28 09:26:36;;;;;;;0.80;0.80;;;14.10;63.40;;;;;;5012249;28;20861;-68
2022/03/28 09:29:05;;;;;;;0.90;0.90;;;14.20;62.80;;;;;;5012385;28;20435;-69
2022/03/28 09:31:35;;;;;;;0.60;0.52;;;14.20;62.10;;;;;;5009592;28;20393;-68
2022/03/28 09:34:10;;;;;;;0.40;0.20;;;14.30;62.70;;;;;;5012346;28;20443;-68
2022/03/28 09:36:44;;;;;;;0.60;0.60;;;14.30;62.70;;;;;;5011375;28;21038;-68
2022/03/28 09:39:16;;;;;;;1.00;1.00;;;14.50;62.20;;;;;;5012216;28;20392;-68
2022/03/28 09:41:43;;;;;;;0.47;0.47;;;14.60;60.60;;;;;;5011901;28;20439;-68
2022/03/28 09:44:09;;;;;;;1.25;1.00;;;14.60;60.50;;;;;;5008985;28;20420;-68
2022/03/28 09:46:37;;;;;;;0.40;0.30;;;14.60;60.20;;;;;;5011316;28;20799;-68
2022/03/28 09:49:03;;;;;;;0.40;0.30;;;14.80;59.90;;;;;;5012087;28;20384;-68
2022/03/28 09:51:31;;;;;;;0.40;0.20;;;14.90;59.70;;;;;;5011269;28;20381;-70
2022/03/28 09:53:58;;;;;;;0.50;0.50;;;15.10;58.60;;;;;;5011796;28;20377;-69
2022/03/28 09:56:25;;;;;;;0.70;0.70;;;15.00;57.60;;;;;;5012054;28;20919;-68
2022/03/28 09:59:00;;;;;;;1.10;1.00;;;15.20;57.80;;;;;;5011520;28;20425;-68
2022/03/28 10:01:29;;;;;;;1.10;1.00;;;15.20;57.10;;;;;;5007089;28;21672;-68
2022/03/28 10:04:05;;;;;;;0.80;0.80;;;15.30;57.10;;;;;;5001123;28;20392;-67
2022/03/28 10:06:32;;;;;;;0.90;0.60;;;15.50;57.20;;;;;;5000591;28;20402;-70
2022/03/28 10:08:59;;;;;;;0.40;0.40;;;15.60;57.00;;;;;;4999355;28;20411;-68
2022/03/28 10:11:26;;;;;;;2.10;1.10;;;15.80;56.80;;;;;;4995851;28;20422;-68
2022/03/28 10:13:52;;;;;;;0.90;0.90;;;15.80;54.00;;;;;;5002044;28;20386;-69
2022/03/28 10:16:19;;;;;;;1.00;0.90;;;15.90;53.10;;;;;;5001325;28;20412;-68
2022/03/28 10:18:47;;;;;;;0.90;0.65;;;16.00;54.90;;;;;;4997499;28;20382;-68
2022/03/28 10:21:27;;;;;;;0.40;0.20;;;16.10;55.20;;;;;;5000703;28;20715;-69
2022/03/28 10:23:56;;;;;;;0.90;0.90;;;16.10;54.40;;;;;;5001357;28;20386;-68
2022/03/28 10:26:30;;;;;;;1.60;1.50;;;16.20;54.70;;;;;;5000876;28;20396;-68
2022/03/28 10:29:11;;;;;;;0.70;0.32;;;16.50;55.50;;;;;;4999586;28;20396;-68
2022/03/28 10:31:55;;;;;;;0.50;0.50;;;16.80;53.30;;;;;;5003360;28;20767;-68
2022/03/28 10:34:40;;;;;;;1.50;1.40;;;16.90;52.40;;;;;;4999026;28;20392;-69
2022/03/28 10:37:29;;;;;;;0.57;0.57;;;17.00;51.90;;;;;;5000824;28;20434;-67
2022/03/28 10:40:30;;;;;;;0.70;0.50;;;17.20;52.40;;;;;;4998918;28;20458;-68
2022/03/28 10:43:11;;;;;;;0.45;0.38;;;17.30;51.70;;;;;;4997301;28;20443;-69
2022/03/28 10:45:49;;;;;;;1.20;0.80;;;17.40;52.00;;;;;;5000818;28;20737;-69
2022/03/28 10:48:17;;;;;;;0.40;0.30;;;17.60;51.50;;;;;;4998939;28;20408;-68
2022/03/28 10:50:53;;;;;;;0.70;0.70;;;17.70;50.20;;;;;;5002011;28;20398;-68
2022/03/28 10:53:31;;;;;;;0.80;0.80;;;17.70;49.70;;;;;;4997565;28;20401;-70
2022/03/28 10:56:05;;;;;;;1.40;1.30;;;18.00;49.30;;;;;;4998437;28;20479;-69
2022/03/28 10:58:42;;;;;;;7.30;1.40;;;18.00;48.60;;;;;;5001121;28;20833;-69
2022/03/28 11:01:11;;;;;;;0.60;0.60;;;18.20;48.00;;;;;;5000385;28;20467;-70
2022/03/28 11:03:41;;;;;;;0.50;0.50;;;18.40;47.70;;;;;;5003027;28;20403;-69
2022/03/28 11:06:07;;;;;;;0.80;0.80;;;18.40;48.00;;;;;;5002317;28;20385;-69
2022/03/28 11:08:45;;;;;;;0.43;0.35;;;18.40;47.80;;;;;;4999836;28;20436;-69
2022/03/28 11:11:15;;;;;;;0.90;0.80;;;18.80;47.00;;;;;;4999212;28;20773;-70
2022/03/28 11:13:42;;;;;;;1.70;1.60;;;18.80;46.70;;;;;;5001112;28;20802;-69
2022/03/28 11:16:21;;;;;;;1.00;0.85;;;19.00;46.10;;;;;;5008401;28;20412;-70
2022/03/28 11:19:25;;;;;;;1.17;1.17;;;19.20;45.90;;;;;;5008032;28;20393;-69
2022/03/28 11:22:03;;;;;;;0.45;0.43;;;19.30;45.60;;;;;;5007326;28;20915;-70
2022/03/28 11:24:41;;;;;;;1.20;1.20;;;19.50;45.90;;;;;;5005412;28;20446;-69
2022/03/28 11:27:08;;;;;;;1.80;1.50;;;19.90;46.00;;;;;;5006478;28;20467;-68
2022/03/28 11:29:33;;;;;;;1.45;1.35;;;19.60;44.50;;;;;;5005366;28;20517;-69
2022/03/28 11:32:11;;;;;;;1.90;1.30;;;20.00;45.30;;;;;;5002742;28;20484;-69
2022/03/28 11:34:37;;;;;;;1.20;0.80;;;20.30;44.10;;;;;;4997478;28;20395;-68
2022/03/28 11:37:04;;;;;;;3.90;1.80;;;20.70;43.60;;;;;;4998379;28;20903;-69
2022/03/28 11:39:33;;;;;;;0.60;0.50;;;20.90;41.30;;;;;;5001571;28;20393;-70
2022/03/28 11:41:59;;;;;;;0.40;0.30;;;21.80;40.90;;;;;;4996374;28;20405;-70
2022/03/28 11:44:26;;;;;;;0.40;0.30;;;22.50;40.90;;;;;;4998776;28;20395;-70
2022/03/28 11:46:57;;;;;;;0.40;0.30;;;23.10;41.10;;;;;;5001583;28;20403;-70
2022/03/28 11:49:23;;;;;;;0.40;0.20;;;23.10;38.90;;;;;;4999690;28;20459;-68
2022/03/28 11:51:49;;;;;;;1.20;1.00;;;23.00;37.10;;;;;;4998078;28;20396;-70
2022/03/28 11:54:17;;;;;;;0.40;0.30;;;23.40;36.70;;;;;;4999476;28;20392;-69
2022/03/28 11:59:30;;;;;;;2.00;1.10;;;24.60;36.50;;;;;;5015530;28;20745;-69
2022/03/28 12:01:57;;;;;;;0.90;0.90;;;23.70;34.30;;;;;;5013445;28;20471;-70
2022/03/28 12:04:26;;;;;;;0.60;0.60;;;24.30;33.70;;;;;;4997239;28;20401;-70
2022/03/28 12:06:52;;;;;;;0.70;0.60;;;24.00;34.20;;;;;;4994063;28;20390;-70
2022/03/28 12:09:20;;;;;;;0.40;0.30;;;24.20;33.10;;;;;;4994541;28;20387;-70
2022/03/28 12:11:55;;;;;;;0.40;0.30;;;24.10;30.00;;;;;;4993494;28;20759;-70
2022/03/28 12:14:22;;;;;;;0.52;0.52;;;24.30;30.70;;;;;;4994546;28;20432;-69
2022/03/28 12:16:51;;;;;;;0.50;0.40;;;24.60;29.50;;;;;;4993475;28;20498;-70
2022/03/28 12:19:20;;;;;;;1.35;1.02;;;24.80;29.70;;;;;;4994515;28;20517;-68
2022/03/28 12:21:47;;;;;;;1.20;1.10;;;24.60;28.50;;;;;;4993473;28;20386;-70
2022/03/28 12:24:14;;;;;;;0.40;0.20;;;24.40;29.30;;;;;;5003553;28;20408;-69
2022/03/28 12:26:42;;;;;;;1.10;1.00;;;24.30;30.10;;;;;;5013919;28;20446;-68
2022/03/28 12:29:11;;;;;;;0.70;0.70;;;24.30;27.80;;;;;;5013192;28;20408;-70
2022/03/28 12:31:37;;;;;;;1.33;0.70;;;24.60;28.40;;;;;;5001634;28;20883;-69
2022/03/28 12:34:03;;;;;;;1.70;1.58;;;23.90;25.20;;;;;;4993473;28;20382;-69
2022/03/28 12:36:30;;;;;;;1.13;1.10;;;24.30;24.60;;;;;;4993905;28;20415;-68
2022/03/28 12:39:06;;;;;;;0.50;0.50;;;23.80;25.30;;;;;;4993257;28;20382;-70
2022/03/28 12:41:39;;;;;;;0.90;0.90;;;24.70;27.00;;;;;;4994076;28;20457;-69
2022/03/28 12:44:05;;;;;;;0.50;0.43;;;24.80;26.10;;;;;;4993252;28;20406;-69
2022/03/28 12:46:31;;;;;;;0.80;0.50;;;24.50;25.60;;;;;;4993677;28;20394;-69
2022/03/28 12:49:00;;;;;;;0.40;0.40;;;24.20;25.10;;;;;;4993870;28;20510;-68
2022/03/28 12:51:33;;;;;;;0.80;0.80;;;23.30;24.10;;;;;;5001241;28;20467;-69
2022/03/28 12:54:11;;;;;;;2.47;0.80;;;24.00;23.00;;;;;;5013455;28;20424;-69
2022/03/28 12:56:49;;;;;;;0.40;0.30;;;24.20;22.80;;;;;;5013110;28;20587;-69
2022/03/28 12:59:20;;;;;;;0.40;0.20;;;24.10;22.80;;;;;;5012262;28;20826;-69
2022/03/28 13:01:47;;;;;;;0.90;0.90;;;24.40;24.40;;;;;;5009612;28;20400;-68